createdAt,value
2023-03-06T00:04:13.675Z,5.60
2023-03-06T00:11:15.821Z,5.95
2023-03-06T00:18:17.938Z,7.22
2023-03-06T00:25:21.691Z,6.60
2023-03-06T00:32:24.151Z,8.10
2023-03-06T00:39:26.285Z,8.18
2023-03-06T00:46:28.245Z,7.25
2023-03-06T00:53:30.223Z,6.55
2023-03-06T01:00:32.274Z,5.43
2023-03-06T01:07:36.745Z,6.97
2023-03-06T01:14:38.758Z,6.57
2023-03-06T01:21:40.763Z,7.32
2023-03-06T01:28:42.783Z,6.18
2023-03-06T01:35:44.848Z,5.72
2023-03-06T01:42:49.167Z,6.88
2023-03-06T01:49:51.292Z,5.95
2023-03-06T01:56:57.415Z,6.15
2023-03-06T02:04:00.360Z,6.93
2023-03-06T02:11:08.400Z,5.65
2023-03-06T02:18:10.503Z,5.03
2023-03-06T02:25:38.575Z,5.05
2023-03-06T02:32:40.503Z,5.03
2023-03-06T02:39:48.855Z,7.30
2023-03-06T02:46:50.901Z,8.13
2023-03-06T02:53:52.963Z,8.23
2023-03-06T03:00:55.007Z,5.65
2023-03-06T03:07:57.248Z,6.78
2023-03-06T03:14:59.313Z,7.57
2023-03-06T03:22:01.458Z,8.07
2023-03-06T03:29:05.271Z,8.32
2023-03-06T03:36:08.047Z,6.70
2023-03-06T03:43:10.055Z,5.53
2023-03-06T03:50:12.601Z,7.88
2023-03-06T03:57:14.931Z,6.53
2023-03-06T04:04:17.161Z,5.35
2023-03-06T04:11:19.145Z,4.63
2023-03-06T04:18:22.481Z,4.20
2023-03-06T04:25:24.464Z,7.97
2023-03-06T04:32:26.505Z,5.10
2023-03-06T04:39:28.548Z,5.72
2023-03-06T04:46:30.555Z,2.60
2023-03-06T04:53:33.088Z,4.80
2023-03-06T05:00:35.130Z,3.17
2023-03-06T05:07:37.213Z,4.25
2023-03-06T05:14:39.256Z,4.35
2023-03-06T05:21:41.309Z,3.28
2023-03-06T05:28:43.332Z,2.65
2023-03-06T05:35:47.498Z,5.00
2023-03-06T05:42:49.625Z,5.70
2023-03-06T05:49:51.687Z,6.78
2023-03-06T05:56:53.865Z,5.53
2023-03-06T06:03:55.932Z,5.25
2023-03-06T06:10:57.914Z,4.88
2023-03-06T06:17:59.925Z,6.32
2023-03-06T06:25:01.900Z,4.03
2023-03-06T06:32:04.032Z,5.78
2023-03-06T06:39:07.776Z,4.38
2023-03-06T06:46:32.338Z,5.97
2023-03-06T06:53:31.714Z,4.82
2023-03-06T07:00:33.748Z,5.63
2023-03-06T07:07:37.378Z,8.45
2023-03-06T07:14:41.589Z,3.25
2023-03-06T07:21:43.554Z,4.18
2023-03-06T07:28:52.356Z,6.22
2023-03-06T07:43:12.919Z,4.53
2023-03-06T07:50:21.137Z,6.55
2023-03-06T07:57:23.139Z,4.60
2023-03-06T08:04:24.970Z,4.15
2023-03-06T08:11:28.648Z,2.65
2023-03-06T08:18:30.982Z,4.82
2023-03-06T08:25:32.873Z,5.18
2023-03-06T08:32:36.752Z,4.55
2023-03-06T08:39:38.669Z,4.60
2023-03-06T08:46:41.003Z,2.70
2023-03-06T08:53:44.401Z,4.45
2023-03-06T09:00:46.785Z,4.57
2023-03-06T09:07:49.011Z,2.90
2023-03-06T09:14:51.166Z,4.95
2023-03-06T09:21:54.245Z,3.08
2023-03-06T09:28:56.582Z,2.80
2023-03-06T09:35:58.883Z,3.25
2023-03-06T09:43:01.171Z,3.75
2023-03-06T09:50:24.702Z,7.25
2023-03-06T09:57:28.437Z,3.85
2023-03-06T10:04:42.350Z,2.88
2023-03-06T10:11:55.322Z,2.80
2023-03-06T10:19:05.135Z,3.50
2023-03-06T10:26:20.709Z,3.38
2023-03-06T10:33:53.386Z,4.78
2023-03-06T10:41:13.520Z,3.80
2023-03-06T10:48:21.015Z,3.08
2023-03-06T10:55:29.553Z,2.72
2023-03-06T11:02:33.002Z,2.95
2023-03-06T11:09:35.751Z,2.50
2023-03-06T11:16:38.541Z,3.85
2023-03-06T11:23:40.549Z,3.00
2023-03-06T11:30:45.724Z,4.28
2023-03-06T11:38:07.653Z,3.13
2023-03-06T11:45:29.432Z,4.18
2023-03-06T11:53:01.894Z,2.58
2023-03-06T12:00:08.597Z,3.55
2023-03-06T12:07:21.771Z,4.25
2023-03-06T12:14:55.180Z,3.33
2023-03-06T12:22:27.008Z,3.28
2023-03-06T12:29:37.574Z,3.42
2023-03-06T12:36:47.984Z,4.30
2023-03-06T12:44:11.115Z,2.58
2023-03-06T12:51:24.809Z,4.22
2023-03-06T12:58:35.142Z,4.78
2023-03-06T13:06:02.756Z,4.85
2023-03-06T13:13:29.699Z,3.95
2023-03-06T13:20:48.160Z,3.42
2023-03-06T13:27:57.615Z,4.57
2023-03-06T13:35:00.064Z,4.43
2023-03-06T13:42:06.326Z,4.93
2023-03-06T13:49:11.534Z,5.53
2023-03-06T13:56:26.410Z,4.75
2023-03-06T14:03:41.193Z,4.53
2023-03-06T14:10:45.309Z,4.70
2023-03-06T14:17:59.682Z,8.38
2023-03-06T14:25:06.646Z,5.05
2023-03-06T14:32:10.433Z,7.10
2023-03-06T14:39:23.327Z,6.32
2023-03-06T14:46:25.319Z,5.10
2023-03-06T14:53:33.403Z,6.25
2023-03-06T15:00:39.708Z,6.43
2023-03-06T15:07:43.030Z,8.25
2023-03-06T15:14:55.995Z,9.02
2023-03-06T15:21:58.911Z,9.48
2023-03-06T15:29:25.362Z,10.07
2023-03-06T15:36:29.936Z,10.75
2023-03-06T15:43:40.967Z,10.57
2023-03-06T15:50:43.145Z,12.02
2023-03-06T15:58:00.214Z,10.60
2023-03-06T16:05:02.910Z,14.00
2023-03-06T16:12:06.301Z,11.98
2023-03-06T16:19:25.249Z,11.63
2023-03-06T16:33:34.025Z,14.68
2023-03-06T16:40:41.486Z,16.40
2023-03-06T16:47:44.744Z,17.52
2023-03-06T16:54:47.144Z,16.10
2023-03-06T17:01:49.728Z,18.38
2023-03-06T17:08:52.115Z,20.67
2023-03-06T17:15:59.624Z,18.85
2023-03-06T17:23:03.177Z,18.63
2023-03-06T17:30:06.836Z,14.02
2023-03-06T17:37:09.800Z,13.82
2023-03-06T17:44:12.478Z,17.63
2023-03-06T17:51:16.793Z,20.48
2023-03-06T17:58:19.328Z,19.83
2023-03-06T18:05:22.590Z,18.27
2023-03-06T18:12:25.598Z,16.23
2023-03-06T18:19:28.515Z,15.13
2023-03-06T18:26:31.732Z,15.18
2023-03-06T18:33:34.491Z,17.45
2023-03-06T18:40:38.160Z,16.17
2023-03-06T18:47:41.528Z,16.67
2023-03-06T18:54:44.418Z,18.42
2023-03-06T19:01:51.389Z,25.90
2023-03-06T19:08:59.476Z,20.35
2023-03-06T19:16:02.603Z,20.70
2023-03-06T19:23:05.332Z,20.52
2023-03-06T19:30:11.118Z,25.13
2023-03-06T19:37:16.345Z,22.55
2023-03-06T19:44:19.630Z,20.55
2023-03-06T19:51:22.347Z,20.15
2023-03-06T19:58:27.732Z,20.17
2023-03-06T20:05:30.368Z,16.63
2023-03-06T20:12:34.104Z,19.73
2023-03-06T20:19:36.476Z,19.80
2023-03-06T20:26:40.416Z,17.35
2023-03-06T20:33:47.101Z,17.55
2023-03-06T20:40:50.505Z,19.70
2023-03-06T20:47:56.912Z,18.60
2023-03-06T20:54:59.986Z,18.33
2023-03-06T21:02:02.363Z,18.05
2023-03-06T21:09:06.408Z,17.40
2023-03-06T21:16:12.847Z,19.15
2023-03-06T21:23:15.432Z,19.45
2023-03-06T21:30:17.808Z,19.95
2023-03-06T21:37:20.351Z,20.27
2023-03-06T21:44:22.689Z,20.15
2023-03-06T21:51:25.556Z,21.33
2023-03-06T21:58:28.656Z,19.90
2023-03-06T22:05:32.237Z,20.80
2023-03-06T22:12:34.834Z,19.98
2023-03-06T22:19:38.002Z,21.88
2023-03-06T22:26:40.102Z,21.48
2023-03-06T22:33:42.166Z,21.70
2023-03-06T22:40:44.094Z,23.23
2023-03-06T22:47:46.061Z,31.50
2023-03-06T22:54:48.014Z,35.72
2023-03-06T23:01:50.149Z,45.22
2023-03-06T23:08:55.706Z,49.63
2023-03-06T23:15:57.721Z,39.72
2023-03-06T23:22:59.726Z,37.00
2023-03-06T23:30:01.721Z,32.38
2023-03-06T23:37:03.748Z,31.73
2023-03-06T23:44:05.952Z,27.77
2023-03-06T23:51:09.724Z,26.73
2023-03-06T23:58:12.520Z,25.20
